Time;durP1;ratioP1;P1;durP2;ratioP2;P2;SDS_P1;SDS_P2;PMS_P1;PMS_P2;Temp;Humidity;BMP_temperature;BMP_pressure;BME280_temperature;BME280_humidity;BME280_pressure;Samples;Min_cycle;Max_cycle;Signal;HPM_P1;HPM_P2
2024/01/25 00:01:49;;;;;;;22.20;4.25;;;;;;;10.88;64.13;101859.13;4146219;28;20092;-63
2024/01/25 00:03:52;;;;;;;22.33;5.10;;;;;;;10.87;63.60;101857.41;4130833;28;20494;-61
2024/01/25 00:05:55;;;;;;;28.55;5.47;;;;;;;10.86;63.66;101848.69;4131423;28;20100;-63
2024/01/25 00:07:58;;;;;;;21.63;5.07;;;;;;;10.81;63.81;101847.66;4131481;28;20073;-63
2024/01/25 00:10:01;;;;;;;22.05;5.45;;;;;;;10.81;63.78;101840.72;4130060;28;20138;-63
2024/01/25 00:12:06;;;;;;;23.08;5.28;;;;;;;10.81;63.84;101848.53;4130206;28;20509;-63
2024/01/25 00:14:08;;;;;;;22.77;4.32;;;;;;;10.80;63.97;101849.34;4130266;28;20057;-63
2024/01/25 00:16:11;;;;;;;28.73;5.80;;;;;;;10.86;63.67;101848.69;4132055;28;20042;-63
2024/01/25 00:18:16;;;;;;;28.88;5.00;;;;;;;10.82;64.24;101850.31;4131207;28;20121;-63
2024/01/25 00:20:19;;;;;;;24.20;7.15;;;;;;;10.81;63.94;101843.31;4130229;28;20053;-63
2024/01/25 00:22:22;;;;;;;19.42;4.95;;;;;;;10.80;63.66;101845.88;4130546;28;20395;-63
2024/01/25 00:24:27;;;;;;;20.95;4.78;;;;;;;10.81;63.26;101848.53;4130919;28;20104;-63
2024/01/25 00:26:30;;;;;;;24.30;5.70;;;;;;;10.83;63.58;101854.69;4130974;28;20066;-62
2024/01/25 00:28:33;;;;;;;25.08;5.63;;;;;;;10.83;63.27;101851.19;4129717;28;20073;-64
2024/01/25 00:30:36;;;;;;;17.38;4.93;;;;;;;10.82;63.43;101846.84;4130981;28;20097;-63
2024/01/25 00:32:38;;;;;;;17.15;4.07;;;;;;;10.82;63.27;101846.84;4129952;28;20363;-63
2024/01/25 00:34:43;;;;;;;22.70;4.82;;;;;;;10.79;63.29;101850.19;4131682;28;20038;-63
2024/01/25 00:36:47;;;;;;;24.55;5.18;;;;;;;10.67;64.22;101852.34;4131166;28;20045;-63
2024/01/25 00:38:50;;;;;;;20.23;5.38;;;;;;;10.70;63.66;101851.56;4128738;28;20569;-63
2024/01/25 00:40:54;;;;;;;29.02;5.63;;;;;;;10.75;63.22;101850.91;4144547;28;20073;-63
2024/01/25 00:42:57;;;;;;;24.67;5.05;;;;;;;10.72;63.38;101850.81;4130640;28;20034;-63
2024/01/25 00:45:01;;;;;;;26.70;5.65;;;;;;;10.70;63.33;101857.66;4129951;28;20076;-63
2024/01/25 00:47:04;;;;;;;17.08;4.25;;;;;;;10.71;64.22;101851.63;4131694;28;20052;-63
2024/01/25 00:49:07;;;;;;;28.85;5.85;;;;;;;10.73;63.67;101852.59;4130259;28;20046;-63
2024/01/25 00:51:16;;;;;;;32.10;6.25;;;;;;;10.75;63.50;101856.13;4130628;28;20065;-63
2024/01/25 00:53:19;;;;;;;21.58;4.63;;;;;;;10.79;63.18;101859.69;4144011;28;20038;-63
2024/01/25 00:55:23;;;;;;;21.73;5.45;;;;;;;10.74;62.82;101851.72;4130798;28;20039;-62
2024/01/25 00:57:25;;;;;;;21.33;5.33;;;;;;;10.71;63.10;101849.03;4130820;28;20042;-63
2024/01/25 00:59:29;;;;;;;21.20;4.22;;;;;;;10.72;63.71;101850.81;4131269;28;20045;-63
2024/01/25 01:01:33;;;;;;;20.08;4.93;;;;;;;10.71;62.99;101856.84;4127284;28;20488;-63
2024/01/25 01:03:36;;;;;;;26.00;4.93;;;;;;;10.70;63.66;101852.44;4129919;28;20448;-63
2024/01/25 01:05:39;;;;;;;24.20;5.00;;;;;;;10.69;63.00;101852.41;4131483;28;20035;-63
2024/01/25 01:07:44;;;;;;;25.50;5.75;;;;;;;10.70;63.28;101849.84;4145157;28;20120;-63
2024/01/25 01:09:48;;;;;;;21.30;4.82;;;;;;;10.72;63.40;101853.41;4130622;28;20042;-63
2024/01/25 01:11:52;;;;;;;19.42;3.60;;;;;;;10.72;63.51;101855.09;4126379;28;20440;-63
2024/01/25 01:13:55;;;;;;;23.27;5.82;;;;;;;10.67;63.19;101861.88;4127288;28;20037;-62
2024/01/25 01:15:57;;;;;;;31.63;4.78;;;;;;;10.67;63.35;101861.88;4123988;28;20065;-63
2024/01/25 01:18:00;;;;;;;19.20;4.43;;;;;;;10.68;62.87;101853.25;4130476;28;20046;-63
2024/01/25 01:20:04;;;;;;;16.55;4.63;;;;;;;10.67;63.15;101851.47;4131243;28;20053;-63
2024/01/25 01:22:07;;;;;;;21.67;5.27;;;;;;;10.63;63.33;101855.66;4144512;28;20045;-63
2024/01/25 01:24:12;;;;;;;17.38;5.15;;;;;;;10.62;63.64;101849.59;4130301;28;20044;-63
2024/01/25 01:26:15;;;;;;;19.23;4.93;;;;;;;10.62;62.96;101853.91;4131217;28;20073;-63
2024/01/25 01:28:18;;;;;;;21.90;4.03;;;;;;;10.63;63.50;101846.16;4129745;28;20031;-63
2024/01/25 01:30:20;;;;;;;26.23;5.60;;;;;;;10.58;62.92;101849.41;4128358;28;20054;-63
2024/01/25 01:32:23;;;;;;;23.42;4.55;;;;;;;10.55;62.85;101847.59;4129794;28;20038;-63
2024/01/25 01:34:25;;;;;;;26.92;4.72;;;;;;;10.51;63.07;101855.22;4129298;28;20044;-62
2024/01/25 01:36:28;;;;;;;18.02;4.63;;;;;;;10.55;63.30;101849.31;4129925;28;20053;-63
2024/01/25 01:38:31;;;;;;;19.75;4.72;;;;;;;10.59;63.26;101851.19;4131096;28;20467;-64
2024/01/25 01:40:35;;;;;;;19.23;5.13;;;;;;;10.58;63.03;101857.22;4129398;28;20066;-63
2024/01/25 01:42:39;;;;;;;18.98;4.15;;;;;;;10.53;63.01;101853.56;4129986;28;20038;-63
2024/01/25 01:44:42;;;;;;;19.65;5.18;;;;;;;10.50;62.86;101850.84;4128566;28;20117;-63
2024/01/25 01:46:45;;;;;;;16.15;5.07;;;;;;;10.45;62.75;101845.47;4129438;28;20325;-63
2024/01/25 01:48:48;;;;;;;20.02;4.93;;;;;;;10.45;63.16;101845.47;4124124;28;20440;-64
2024/01/25 01:50:52;;;;;;;20.85;5.05;;;;;;;10.40;62.64;101842.72;4145326;28;20046;-64
2024/01/25 01:52:56;;;;;;;20.98;4.82;;;;;;;10.42;63.28;101846.25;4130112;28;20043;-64
2024/01/25 01:54:59;;;;;;;20.08;4.85;;;;;;;10.43;62.71;101840.22;4128299;28;20043;-64
2024/01/25 01:57:04;;;;;;;13.37;4.00;;;;;;;10.39;62.50;101835.72;4128951;28;20051;-64
2024/01/25 01:59:11;;;;;;;20.42;4.47;;;;;;;10.38;62.48;101848.69;4144113;28;20810;-63
2024/01/25 02:01:14;;;;;;;20.85;5.18;;;;;;;10.33;62.94;101839.81;4129793;28;20072;-64
2024/01/25 02:03:17;;;;;;;18.17;4.28;;;;;;;10.33;62.13;101850.19;4127098;28;20042;-64
2024/01/25 02:05:20;;;;;;;16.00;4.97;;;;;;;10.33;62.91;101845.88;4124716;28;20042;-63
2024/01/25 02:07:23;;;;;;;20.90;4.80;;;;;;;10.30;62.07;101850.97;4129971;28;20144;-63
2024/01/25 02:09:26;;;;;;;23.70;5.13;;;;;;;10.30;62.66;101857.03;4130229;28;20045;-63
2024/01/25 02:11:29;;;;;;;16.40;3.63;;;;;;;10.35;62.42;101854.63;4128746;28;20089;-63
2024/01/25 02:13:33;;;;;;;19.42;4.13;;;;;;;10.34;62.00;101855.50;4129907;28;20038;-63
2024/01/25 02:15:36;;;;;;;16.42;5.32;;;;;;;10.36;61.90;101851.22;4129284;28;20056;-63
2024/01/25 02:17:40;;;;;;;23.35;4.85;;;;;;;10.36;62.25;101851.22;4129934;28;20031;-63
2024/01/25 02:19:43;;;;;;;19.92;4.95;;;;;;;10.38;61.73;101854.78;4131560;28;20045;-63
2024/01/25 02:21:46;;;;;;;28.98;5.00;;;;;;;10.43;61.57;101850.63;4132852;28;20071;-63
2024/01/25 02:23:51;;;;;;;17.35;3.80;;;;;;;10.42;61.07;101845.38;4130051;28;20038;-63
2024/01/25 02:25:54;;;;;;;19.67;3.95;;;;;;;10.43;61.20;101850.63;4130981;28;20435;-63
2024/01/25 02:27:57;;;;;;;21.02;4.63;;;;;;;10.40;61.55;101855.72;4133463;28;20045;-63
2024/01/25 02:30:00;;;;;;;20.05;4.47;;;;;;;10.44;62.08;101859.28;4132755;28;20081;-63
2024/01/25 02:32:03;;;;;;;24.42;4.60;;;;;;;10.45;61.75;101850.69;4131559;28;20042;-63
2024/01/25 02:34:05;;;;;;;24.73;4.93;;;;;;;10.54;61.48;101860.53;4132289;28;20133;-63
2024/01/25 02:36:08;;;;;;;21.00;4.53;;;;;;;10.53;60.88;101857.06;4132200;28;20038;-63
2024/01/25 02:38:10;;;;;;;20.55;4.50;;;;;;;10.50;61.92;101861.25;4132312;28;20129;-63
2024/01/25 02:40:15;;;;;;;17.98;4.07;;;;;;;10.49;61.45;101857.75;4133035;28;20060;-63
2024/01/25 02:42:18;;;;;;;20.98;5.00;;;;;;;10.45;61.14;101859.38;4131311;28;20049;-62
2024/01/25 02:44:20;;;;;;;19.05;5.32;;;;;;;10.42;61.26;101861.84;4130540;28;20050;-63
2024/01/25 02:46:23;;;;;;;21.73;5.57;;;;;;;10.36;62.15;101864.22;4132677;28;20121;-63
2024/01/25 02:48:26;;;;;;;14.73;5.07;;;;;;;10.36;62.12;101853.81;4132859;28;20081;-63
2024/01/25 02:50:29;;;;;;;17.80;4.40;;;;;;;10.34;62.32;101847.69;4132603;28;20038;-62
2024/01/25 02:52:32;;;;;;;18.48;4.93;;;;;;;10.31;62.29;101863.13;4130227;28;20508;-63
2024/01/25 02:54:36;;;;;;;20.73;5.03;;;;;;;10.28;62.23;101858.69;4131785;28;20044;-63
2024/01/25 02:56:41;;;;;;;20.97;4.67;;;;;;;10.19;61.87;101860.06;4130741;28;20122;-63
2024/01/25 02:58:42;;;;;;;18.55;4.85;;;;;;;10.18;62.48;101855.66;4130405;28;20129;-63
2024/01/25 03:00:45;;;;;;;23.50;4.97;;;;;;;10.21;62.20;101854.09;4131562;28;20070;-63
2024/01/25 03:02:48;;;;;;;29.60;6.18;;;;;;;10.25;62.31;101862.88;4124431;28;20046;-63
2024/01/25 03:04:50;;;;;;;25.83;4.72;;;;;;;10.26;61.96;101862.94;4147193;28;20034;-62
2024/01/25 03:06:54;;;;;;;27.67;4.95;;;;;;;10.30;62.53;101862.22;4131386;28;20078;-63
2024/01/25 03:08:57;;;;;;;20.77;4.70;;;;;;;10.24;62.17;101853.34;4133158;28;20448;-63
2024/01/25 03:11:00;;;;;;;20.45;5.40;;;;;;;10.18;62.68;101853.97;4132843;28;20041;-62
2024/01/25 03:13:04;;;;;;;19.02;3.95;;;;;;;10.15;62.29;101859.06;4132785;28;20054;-63
2024/01/25 03:15:09;;;;;;;23.60;4.93;;;;;;;10.10;62.55;101858.00;4132168;28;20057;-63
2024/01/25 03:17:12;;;;;;;;;;;;;;;10.01;62.87;101858.50;4133315;28;20038;-63
2024/01/25 03:19:15;;;;;;;13.35;3.30;;;;;;;10.02;62.81;101860.28;4131705;28;20004;-63
2024/01/25 03:21:17;;;;;;;19.73;4.47;;;;;;;10.03;62.74;101850.78;4132684;28;20045;-63
2024/01/25 03:23:20;;;;;;;15.98;4.75;;;;;;;10.03;62.92;101851.69;4132323;28;20057;-63
2024/01/25 03:25:23;;;;;;;17.58;4.60;;;;;;;10.01;62.76;101863.72;4132873;28;20042;-63
2024/01/25 03:27:26;;;;;;;23.92;4.78;;;;;;;9.98;62.94;101858.41;4132909;28;20511;-62
2024/01/25 03:29:31;;;;;;;19.90;5.05;;;;;;;9.97;62.22;101854.03;4132849;28;20038;-63
2024/01/25 03:31:35;;;;;;;18.48;4.45;;;;;;;9.91;62.47;101865.06;4130388;28;20066;-62
2024/01/25 03:33:38;;;;;;;27.13;5.68;;;;;;;9.87;62.84;101870.97;4124912;28;20485;-63
2024/01/25 03:35:41;;;;;;;16.65;5.22;;;;;;;9.89;63.06;101871.03;4131746;28;20046;-62
2024/01/25 03:37:43;;;;;;;19.60;4.88;;;;;;;9.89;63.16;101871.03;4132578;28;20046;-62
2024/01/25 03:39:46;;;;;;;19.60;4.85;;;;;;;9.87;63.54;101872.66;4130856;28;20443;-63
2024/01/25 03:41:49;;;;;;;16.25;4.70;;;;;;;9.86;63.21;101863.13;4132251;28;20039;-63
2024/01/25 03:43:51;;;;;;;25.42;6.03;;;;;;;9.81;63.62;101859.44;4132470;28;20109;-63
2024/01/25 03:45:56;;;;;;;19.48;4.57;;;;;;;9.81;63.23;101875.91;4131034;28;20085;-62
2024/01/25 03:47:59;;;;;;;16.83;4.68;;;;;;;9.78;63.29;101876.69;4130757;28;20125;-63
2024/01/25 03:50:03;;;;;;;18.42;4.80;;;;;;;9.86;63.56;101877.00;4131795;28;20577;-63
2024/01/25 03:52:07;;;;;;;22.55;4.60;;;;;;;9.86;63.58;101878.72;4130680;28;20093;-62
2024/01/25 03:54:10;;;;;;;18.05;4.63;;;;;;;9.88;63.12;101877.03;4131563;28;20485;-63
2024/01/25 03:56:12;;;;;;;24.45;4.63;;;;;;;9.90;63.65;101885.78;4130222;28;20108;-63
2024/01/25 03:58:15;;;;;;;18.25;4.50;;;;;;;9.92;63.55;101884.16;4131571;28;20038;-63
2024/01/25 04:00:18;;;;;;;24.15;5.10;;;;;;;9.99;62.65;101896.56;4131289;28;20573;-63
2024/01/25 04:02:23;;;;;;;20.23;5.15;;;;;;;10.01;63.04;101905.28;4131672;28;20034;-63
2024/01/25 04:04:26;;;;;;;22.25;5.43;;;;;;;9.99;62.71;101901.75;4128484;28;20093;-63
2024/01/25 04:06:29;;;;;;;19.95;5.82;;;;;;;9.99;63.52;101909.53;4130869;28;20042;-63
2024/01/25 04:08:32;;;;;;;17.95;5.03;;;;;;;9.97;62.85;101913.78;4114269;28;20409;-62
2024/01/25 04:10:35;;;;;;;20.45;4.10;;;;;;;9.97;63.45;101921.56;4130311;28;20038;-63
2024/01/25 04:12:37;;;;;;;17.98;4.50;;;;;;;9.93;63.38;101911.91;4131850;28;20034;-63
2024/01/25 04:14:40;;;;;;;23.40;5.07;;;;;;;9.90;63.29;101916.94;4146000;28;20447;-63
2024/01/25 04:16:43;;;;;;;23.95;5.07;;;;;;;9.86;63.62;101917.66;4112624;28;20129;-63
2024/01/25 04:18:47;;;;;;;18.30;4.72;;;;;;;9.83;63.28;101921.03;4130768;28;20041;-62
2024/01/25 04:20:50;;;;;;;16.10;3.75;;;;;;;9.79;63.93;101920.00;4134188;28;20030;-63
2024/01/25 04:22:54;;;;;;;29.60;5.68;;;;;;;9.73;63.60;101924.06;4131099;28;20038;-63
2024/01/25 04:24:57;;;;;;;29.85;5.22;;;;;;;9.69;63.99;101925.63;4128747;28;20130;-63
2024/01/25 04:27:01;;;;;;;25.50;5.13;;;;;;;9.62;63.81;101928.78;4130731;28;20034;-63
2024/01/25 04:29:04;;;;;;;26.95;5.85;;;;;;;9.56;64.18;101941.53;4129972;28;20372;-63
2024/01/25 04:31:07;;;;;;;21.45;5.13;;;;;;;9.49;63.97;101937.81;4142362;28;20467;-63
2024/01/25 04:33:10;;;;;;;25.23;5.65;;;;;;;9.46;64.47;101942.84;4125433;28;20046;-63
2024/01/25 04:35:14;;;;;;;21.88;4.70;;;;;;;9.41;64.61;101940.06;4125468;28;20034;-63
2024/01/25 04:37:17;;;;;;;22.13;5.30;;;;;;;9.36;64.55;101943.25;4131073;28;20432;-63
2024/01/25 04:39:20;;;;;;;26.42;4.95;;;;;;;9.31;64.70;101956.06;4130153;28;20050;-63
2024/01/25 04:41:23;;;;;;;16.92;4.07;;;;;;;9.23;65.14;101952.25;4133404;28;20038;-63
2024/01/25 04:43:26;;;;;;;22.05;4.88;;;;;;;9.18;65.12;101959.81;4133487;28;20045;-63
2024/01/25 04:45:29;;;;;;;24.13;5.45;;;;;;;9.12;65.79;101954.34;4130119;28;20113;-64
2024/01/25 04:47:31;;;;;;;24.20;5.57;;;;;;;9.06;65.69;101965.34;4128768;28;20088;-64
2024/01/25 04:49:34;;;;;;;25.27;5.53;;;;;;;9.04;65.54;101969.59;4129828;28;20045;-62
2024/01/25 04:51:39;;;;;;;24.48;5.93;;;;;;;9.01;65.91;101966.88;4131333;28;20038;-63
2024/01/25 04:53:42;;;;;;;26.98;4.78;;;;;;;8.99;66.30;101973.66;4130348;28;20309;-63
2024/01/25 04:55:45;;;;;;;21.30;5.32;;;;;;;8.96;66.41;101973.53;4131625;28;20145;-63
2024/01/25 04:57:51;;;;;;;18.67;4.97;;;;;;;8.94;66.18;101980.38;4131021;28;20077;-63
2024/01/25 04:59:54;;;;;;;21.95;5.90;;;;;;;8.92;66.49;101982.00;4127933;28;20066;-63
2024/01/25 05:01:57;;;;;;;21.10;4.47;;;;;;;8.87;66.63;101992.16;4125232;28;20034;-63
2024/01/25 05:04:01;;;;;;;21.30;5.30;;;;;;;8.83;66.17;101986.78;4125430;28;20065;-62
2024/01/25 05:06:22;;;;;;;23.58;6.20;;;;;;;8.83;66.55;101992.81;4123840;28;20126;-63
2024/01/25 05:08:27;;;;;;;24.63;5.47;;;;;;;8.82;66.56;101991.06;4131092;28;20042;-63
2024/01/25 05:10:30;;;;;;;12.85;3.40;;;;;;;8.84;66.19;101994.63;4131518;28;20034;-63
2024/01/25 05:12:33;;;;;;;20.13;5.05;;;;;;;8.82;66.43;101995.34;4131159;28;20058;-63
2024/01/25 05:14:36;;;;;;;19.25;4.90;;;;;;;8.76;66.40;101995.06;4131489;28;20050;-63
2024/01/25 05:16:39;;;;;;;19.98;5.47;;;;;;;8.77;66.80;101994.28;4128361;28;20432;-63
2024/01/25 05:18:42;;;;;;;21.95;5.72;;;;;;;8.83;66.38;102000.59;4129307;28;20039;-63
2024/01/25 05:20:45;;;;;;;21.10;5.40;;;;;;;8.87;66.16;101999.06;4131243;28;20062;-63
2024/01/25 05:22:48;;;;;;;28.75;6.55;;;;;;;8.89;66.15;101997.41;4131041;28;20136;-63
2024/01/25 05:24:52;;;;;;;24.58;6.38;;;;;;;8.85;66.71;101988.63;4131542;28;20109;-63
2024/01/25 05:26:56;;;;;;;34.75;7.10;;;;;;;8.83;66.71;101987.66;4130589;28;20066;-63
2024/01/25 05:28:59;;;;;;;34.28;7.50;;;;;;;8.80;66.44;101984.03;4128457;28;20527;-63
2024/01/25 05:31:02;;;;;;;20.08;5.18;;;;;;;8.78;66.76;101996.94;4130776;28;20085;-63
2024/01/25 05:33:08;;;;;;;23.38;4.80;;;;;;;8.79;66.93;101984.84;4131020;28;20057;-63
2024/01/25 05:35:11;;;;;;;26.75;6.68;;;;;;;8.77;66.95;101981.31;4146180;28;20042;-63
2024/01/25 05:37:14;;;;;;;21.05;5.10;;;;;;;8.71;67.25;101982.78;4129555;28;20061;-62
2024/01/25 05:39:17;;;;;;;21.42;5.75;;;;;;;8.73;66.92;101981.16;4130034;28;20041;-63
2024/01/25 05:41:21;;;;;;;28.75;6.05;;;;;;;8.72;67.14;101991.47;4130858;28;20034;-63
2024/01/25 05:43:24;;;;;;;32.90;5.90;;;;;;;8.69;66.99;101987.03;4130085;28;20073;-63
2024/01/25 05:45:27;;;;;;;26.05;5.35;;;;;;;8.70;67.15;101991.41;4131080;28;20539;-63
2024/01/25 05:47:30;;;;;;;26.45;5.85;;;;;;;8.67;67.25;101980.88;4131104;28;20127;-62
2024/01/25 05:49:33;;;;;;;21.23;5.05;;;;;;;8.71;67.25;101981.91;4131211;28;20645;-63
2024/01/25 05:51:36;;;;;;;20.05;4.70;;;;;;;8.76;66.95;101995.06;4130903;28;20496;-63
2024/01/25 05:53:39;;;;;;;19.10;5.55;;;;;;;8.78;66.87;101983.97;4131053;28;20428;-63
2024/01/25 05:55:42;;;;;;;20.05;5.18;;;;;;;8.79;67.14;101984.84;4134424;28;20047;-63
2024/01/25 05:57:47;;;;;;;19.90;6.00;;;;;;;8.79;67.20;101979.66;4133383;28;20061;-63
2024/01/25 05:59:51;;;;;;;21.30;5.30;;;;;;;8.77;66.86;101977.00;4132720;28;20520;-63
2024/01/25 06:01:53;;;;;;;18.70;4.40;;;;;;;8.73;67.10;101985.44;4133789;28;20042;-63
2024/01/25 06:03:56;;;;;;;20.55;5.22;;;;;;;8.71;66.86;101981.91;4134228;28;20046;-62
2024/01/25 06:05:59;;;;;;;23.02;4.72;;;;;;;8.68;66.92;101977.47;4134249;28;20042;-63
2024/01/25 06:08:03;;;;;;;21.33;5.75;;;;;;;8.63;67.02;101978.97;4132910;28;20045;-63
2024/01/25 06:10:07;;;;;;;32.05;6.15;;;;;;;8.55;67.47;101975.13;4129058;28;20129;-63
2024/01/25 06:12:10;;;;;;;24.57;6.20;;;;;;;8.46;67.50;101979.88;4132548;28;20054;-63
2024/01/25 06:14:15;;;;;;;27.35;6.85;;;;;;;8.43;67.80;101983.16;4134114;28;20293;-63
2024/01/25 06:16:17;;;;;;;24.77;6.32;;;;;;;8.37;67.83;101990.66;4134122;28;20046;-62
2024/01/25 06:18:21;;;;;;;31.75;6.30;;;;;;;8.37;68.10;101990.66;4133832;28;20035;-63
2024/01/25 06:20:26;;;;;;;23.77;6.15;;;;;;;8.43;68.14;101984.88;4131674;28;20092;-63
2024/01/25 06:22:29;;;;;;;21.23;4.88;;;;;;;8.46;67.75;101983.34;4133572;28;20050;-63
2024/01/25 06:24:31;;;;;;;23.70;4.78;;;;;;;8.45;67.71;101973.78;4133992;28;20061;-63
2024/01/25 06:26:34;;;;;;;24.52;5.57;;;;;;;8.45;67.76;101986.75;4133981;28;20046;-63
2024/01/25 06:28:37;;;;;;;21.13;5.88;;;;;;;8.48;67.78;101988.59;4132731;28;20097;-63
2024/01/25 06:30:41;;;;;;;19.40;5.28;;;;;;;8.52;67.73;101995.72;4132039;28;20042;-63
2024/01/25 06:32:44;;;;;;;23.05;7.80;;;;;;;8.54;67.83;102004.44;4133343;28;20492;-63
2024/01/25 06:34:46;;;;;;;23.65;5.43;;;;;;;8.62;67.21;102005.69;4133967;28;20039;-63
2024/01/25 06:36:50;;;;;;;24.83;5.47;;;;;;;8.54;67.21;101999.25;4133963;28;20489;-63
2024/01/25 06:38:53;;;;;;;30.13;6.18;;;;;;;8.45;67.52;102010.06;4132069;28;20507;-63
2024/01/25 06:40:56;;;;;;;25.48;5.30;;;;;;;8.43;67.37;102001.31;4133076;28;20524;-63
2024/01/25 06:42:58;;;;;;;18.75;5.32;;;;;;;8.40;67.75;101996.00;4133515;28;20092;-63
2024/01/25 06:45:02;;;;;;;23.73;5.75;;;;;;;8.41;67.72;101999.47;4131417;28;20077;-63
2024/01/25 06:47:06;;;;;;;20.58;5.40;;;;;;;8.38;67.69;102001.09;4132365;28;20065;-62
2024/01/25 06:49:09;;;;;;;18.33;5.00;;;;;;;8.37;67.73;101996.72;4132873;28;20070;-62
2024/01/25 06:51:14;;;;;;;21.90;5.57;;;;;;;8.38;67.75;102001.09;4133300;28;20265;-61
2024/01/25 06:53:17;;;;;;;26.13;4.55;;;;;;;8.36;67.61;101999.25;4133589;28;20488;-62
2024/01/25 06:55:20;;;;;;;15.75;4.90;;;;;;;8.38;67.84;102001.09;4133580;28;20035;-61
2024/01/25 06:57:23;;;;;;;23.02;5.22;;;;;;;8.40;67.92;102006.34;4133091;28;20089;-62
2024/01/25 06:59:26;;;;;;;18.75;4.63;;;;;;;8.43;67.77;102006.50;4131837;28;20532;-62
2024/01/25 07:01:30;;;;;;;23.65;4.60;;;;;;;8.43;68.01;102000.44;4129356;28;20484;-62
2024/01/25 07:03:35;;;;;;;25.63;5.78;;;;;;;8.44;67.83;101999.59;4132669;28;20536;-61
2024/01/25 07:05:38;;;;;;;26.80;5.65;;;;;;;8.43;67.41;102001.31;4132777;28;20142;-62
2024/01/25 07:07:41;;;;;;;29.73;5.45;;;;;;;8.42;67.64;102009.00;4133345;28;20042;-62
2024/01/25 07:09:43;;;;;;;23.92;5.95;;;;;;;8.37;67.76;102007.09;4133259;28;20129;-62
2024/01/25 07:11:46;;;;;;;19.58;5.55;;;;;;;8.37;67.75;102007.09;4132027;28;20481;-62
2024/01/25 07:13:49;;;;;;;27.08;5.90;;;;;;;8.32;67.82;102008.59;4148090;28;20069;-63
2024/01/25 07:15:52;;;;;;;25.85;5.63;;;;;;;8.31;67.91;102008.47;4132371;28;20038;-63
2024/01/25 07:17:56;;;;;;;21.35;6.03;;;;;;;8.26;67.91;102013.44;4147909;28;20041;-63
2024/01/25 07:20:00;;;;;;;24.67;6.38;;;;;;;8.23;67.97;102022.78;4133218;28;20500;-65
2024/01/25 07:22:04;;;;;;;22.63;4.50;;;;;;;8.18;68.25;102022.56;4126697;28;20046;-62
2024/01/25 07:24:07;;;;;;;27.65;7.15;;;;;;;8.15;68.29;102019.81;4133071;28;20093;-63
2024/01/25 07:26:17;;;;;;;24.05;5.40;;;;;;;8.09;68.74;102023.00;4133002;28;20045;-63
2024/01/25 07:28:20;;;;;;;27.52;5.90;;;;;;;8.03;68.86;102028.75;4132922;28;20485;-63
2024/01/25 07:30:23;;;;;;;22.73;6.20;;;;;;;7.98;68.76;102027.63;4132053;28;20046;-63
2024/01/25 07:32:26;;;;;;;23.70;5.30;;;;;;;7.96;68.84;102029.25;4132173;28;20081;-63
2024/01/25 07:34:29;;;;;;;29.17;5.97;;;;;;;7.91;69.09;102035.91;4132926;28;20065;-63
2024/01/25 07:36:34;;;;;;;24.42;5.85;;;;;;;7.84;69.29;102032.13;4129420;28;20072;-63
2024/01/25 07:38:37;;;;;;;34.70;6.82;;;;;;;7.67;69.48;102028.66;4132840;28;20065;-62
2024/01/25 07:40:40;;;;;;;29.35;6.43;;;;;;;7.64;69.86;102043.16;4131546;28;20042;-63
2024/01/25 07:42:43;;;;;;;33.72;8.02;;;;;;;7.56;69.92;102031.50;4132477;28;20129;-63
2024/01/25 07:44:46;;;;;;;37.97;7.75;;;;;;;7.52;70.37;102027.88;4132885;28;20493;-63
2024/01/25 07:46:49;;;;;;;28.23;7.30;;;;;;;7.52;70.51;102022.72;4132563;28;20448;-63
2024/01/25 07:48:53;;;;;;;28.42;7.68;;;;;;;7.49;70.93;102025.13;4132756;28;20052;-63
2024/01/25 07:50:56;;;;;;;27.08;7.13;;;;;;;7.51;70.74;102028.69;4131095;28;20129;-63
2024/01/25 07:53:02;;;;;;;28.58;7.40;;;;;;;7.58;70.74;102028.19;4129027;28;20571;-62
2024/01/25 07:55:06;;;;;;;32.75;7.35;;;;;;;7.62;71.08;102030.16;4132631;28;20097;-63
2024/01/25 07:57:09;;;;;;;25.00;6.03;;;;;;;7.67;70.73;102028.66;4131169;28;20068;-63
2024/01/25 07:59:11;;;;;;;35.47;7.80;;;;;;;7.78;70.52;102044.75;4132444;28;20058;-63
2024/01/25 08:01:18;;;;;;;34.28;7.35;;;;;;;7.85;69.99;102036.47;4131218;28;20046;-63
2024/01/25 08:03:21;;;;;;;28.70;6.05;;;;;;;7.83;69.78;102040.69;4132251;28;20523;-61
2024/01/25 08:05:25;;;;;;;25.80;6.20;;;;;;;7.85;69.88;102040.78;4132496;28;20436;-63
2024/01/25 08:07:42;;;;;;;29.83;7.13;;;;;;;7.82;70.05;102040.63;4131696;28;20114;-63
2024/01/25 08:09:50;;;;;;;38.85;6.95;;;;;;;7.80;70.27;102043.13;4131029;28;20081;-63
2024/01/25 08:11:56;;;;;;;23.15;5.90;;;;;;;7.80;70.05;102048.31;4129371;28;20050;-63
2024/01/25 08:13:59;;;;;;;28.23;6.18;;;;;;;7.78;70.21;102052.53;4132130;28;20042;-62
2024/01/25 08:16:02;;;;;;;30.10;8.70;;;;;;;7.82;70.49;102048.38;4132095;28;20042;-62
2024/01/25 08:18:05;;;;;;;36.40;7.82;;;;;;;7.81;70.57;102054.38;4131682;28;20128;-63
2024/01/25 08:20:10;;;;;;;37.22;7.60;;;;;;;7.80;70.50;102052.59;4132126;28;20049;-63
2024/01/25 08:22:13;;;;;;;;;;;;;;;7.69;71.13;102057.22;4130421;28;20066;-63
2024/01/25 08:24:17;;;;;;;31.00;7.53;;;;;;;7.72;70.81;102061.66;4132020;28;20368;-63
2024/01/25 08:26:21;;;;;;;33.08;6.35;;;;;;;7.81;70.97;102054.38;4132172;28;20076;-63
2024/01/25 08:28:23;;;;;;;33.47;7.90;;;;;;;7.89;70.79;102053.06;4132157;28;20050;-62
2024/01/25 08:30:26;;;;;;;31.70;7.60;;;;;;;7.92;70.61;102045.44;4132489;28;20588;-63
2024/01/25 08:32:29;;;;;;;34.38;7.63;;;;;;;7.90;70.80;102044.50;4113040;28;20047;-63
2024/01/25 08:34:31;;;;;;;26.98;6.22;;;;;;;7.88;70.75;102048.69;4131979;28;20046;-63
2024/01/25 08:36:35;;;;;;;30.25;7.28;;;;;;;7.88;70.63;102048.69;4129857;28;20065;-63
2024/01/25 08:38:38;;;;;;;36.35;8.38;;;;;;;7.98;70.48;102048.34;4113417;28;20099;-63
2024/01/25 08:40:41;;;;;;;26.75;5.68;;;;;;;8.06;70.31;102051.34;4131685;28;20045;-63
2024/01/25 08:42:45;;;;;;;31.33;6.68;;;;;;;8.13;70.10;102058.59;4129647;28;20464;-63
2024/01/25 08:44:49;;;;;;;32.25;6.63;;;;;;;8.17;69.99;102057.91;4131629;28;20416;-62
2024/01/25 08:46:53;;;;;;;25.80;6.22;;;;;;;8.19;70.37;102063.19;4130604;28;20555;-63
2024/01/25 08:48:56;;;;;;;22.48;6.53;;;;;;;8.24;70.08;102066.03;4115817;28;20042;-63
2024/01/25 08:50:59;;;;;;;30.17;7.43;;;;;;;8.28;69.84;102065.34;4115563;28;20043;-63
2024/01/25 08:53:01;;;;;;;35.85;6.65;;;;;;;8.24;69.80;102066.91;4126824;28;20046;-61
2024/01/25 08:55:05;;;;;;;29.40;5.72;;;;;;;8.24;69.63;102066.91;4131711;28;20452;-63
2024/01/25 08:57:08;;;;;;;25.23;5.53;;;;;;;8.32;69.98;102070.78;4131715;28;20042;-63
2024/01/25 08:59:12;;;;;;;27.13;6.57;;;;;;;8.40;69.73;102071.13;4131499;28;20038;-63
2024/01/25 09:01:15;;;;;;;32.88;8.68;;;;;;;8.41;69.51;102072.94;4131370;28;20120;-63
2024/01/25 09:03:19;;;;;;;27.88;8.05;;;;;;;8.46;69.29;102076.66;4130257;28;20038;-63
2024/01/25 09:05:22;;;;;;;31.95;7.75;;;;;;;8.53;69.55;102080.44;4131216;28;20030;-63
2024/01/25 09:07:25;;;;;;;28.55;6.32;;;;;;;8.58;69.18;102081.53;4145701;28;20124;-63
2024/01/25 09:09:28;;;;;;;31.40;7.13;;;;;;;8.67;69.20;102074.22;4131229;28;20077;-63
2024/01/25 09:11:31;;;;;;;24.65;6.80;;;;;;;8.75;68.80;102077.19;4131090;28;20046;-63
2024/01/25 09:13:34;;;;;;;33.05;7.32;;;;;;;8.76;68.64;102076.38;4131327;28;20464;-63
2024/01/25 09:15:49;;;;;;;33.50;7.55;;;;;;;8.78;68.23;102074.72;4146632;28;20046;-63
2024/01/25 09:17:52;;;;;;;36.90;6.63;;;;;;;8.85;68.50;102079.38;4131463;28;20559;-63
2024/01/25 09:19:58;;;;;;;35.50;8.10;;;;;;;8.90;68.55;102074.41;4130165;28;20038;-62
2024/01/25 09:22:04;;;;;;;34.45;8.40;;;;;;;8.96;68.07;102074.69;4129892;28;20058;-62
2024/01/25 09:24:07;;;;;;;31.45;7.55;;;;;;;8.97;68.14;102068.69;4124773;28;20042;-63
2024/01/25 09:26:10;;;;;;;33.05;8.35;;;;;;;8.94;67.85;102072.88;4130657;28;20042;-63
2024/01/25 09:28:12;;;;;;;31.63;7.05;;;;;;;8.97;68.10;102073.88;4146162;28;20037;-63
2024/01/25 09:30:16;;;;;;;36.88;7.63;;;;;;;9.06;67.58;102071.72;4131291;28;20464;-63
2024/01/25 09:32:21;;;;;;;35.25;6.25;;;;;;;9.14;67.67;102072.09;4130618;28;20069;-63